sensor_id;sensor_type;location;lat;lon;timestamp;P1;durP1;ratioP1;P2;durP2;ratioP2
9964;SDS011;5023;53.554;9.964;2023-04-23T00:01:09;9.32;;;8.50;;
9964;SDS011;5023;53.554;9.964;2023-04-23T00:06:11;13.35;;;11.88;;
9964;SDS011;5023;53.554;9.964;2023-04-23T00:11:15;10.00;;;9.10;;
9964;SDS011;5023;53.554;9.964;2023-04-23T00:16:18;9.00;;;8.20;;
9964;SDS011;5023;53.554;9.964;2023-04-23T00:21:20;13.00;;;11.77;;
9964;SDS011;5023;53.554;9.964;2023-04-23T00:26:24;52.95;;;44.15;;
9964;SDS011;5023;53.554;9.964;2023-04-23T00:31:25;13.57;;;11.95;;
9964;SDS011;5023;53.554;9.964;2023-04-23T00:36:27;12.98;;;11.60;;
9964;SDS011;5023;53.554;9.964;2023-04-23T00:41:31;13.98;;;12.57;;
9964;SDS011;5023;53.554;9.964;2023-04-23T00:46:34;13.55;;;12.35;;
9964;SDS011;5023;53.554;9.964;2023-04-23T00:51:36;14.52;;;13.05;;
9964;SDS011;5023;53.554;9.964;2023-04-23T00:56:39;15.07;;;13.57;;
9964;SDS011;5023;53.554;9.964;2023-04-23T01:01:41;15.05;;;13.65;;
9964;SDS011;5023;53.554;9.964;2023-04-23T01:06:44;16.27;;;14.70;;
9964;SDS011;5023;53.554;9.964;2023-04-23T01:11:49;14.65;;;13.35;;
9964;SDS011;5023;53.554;9.964;2023-04-23T01:16:52;17.17;;;15.57;;
9964;SDS011;5023;53.554;9.964;2023-04-23T01:21:55;16.70;;;15.10;;
9964;SDS011;5023;53.554;9.964;2023-04-23T01:27:01;16.83;;;15.13;;
9964;SDS011;5023;53.554;9.964;2023-04-23T01:32:03;14.60;;;13.20;;
9964;SDS011;5023;53.554;9.964;2023-04-23T01:37:06;14.73;;;13.30;;
9964;SDS011;5023;53.554;9.964;2023-04-23T01:42:10;14.05;;;12.65;;
9964;SDS011;5023;53.554;9.964;2023-04-23T01:47:12;14.50;;;13.20;;
9964;SDS011;5023;53.554;9.964;2023-04-23T01:52:14;14.90;;;13.50;;
9964;SDS011;5023;53.554;9.964;2023-04-23T01:57:18;13.90;;;12.57;;
9964;SDS011;5023;53.554;9.964;2023-04-23T02:02:23;11.80;;;10.75;;
9964;SDS011;5023;53.554;9.964;2023-04-23T02:07:25;15.23;;;13.82;;
9964;SDS011;5023;53.554;9.964;2023-04-23T02:12:28;16.23;;;14.73;;
9964;SDS011;5023;53.554;9.964;2023-04-23T02:17:30;22.05;;;20.05;;
9964;SDS011;5023;53.554;9.964;2023-04-23T02:22:32;20.77;;;18.73;;
9964;SDS011;5023;53.554;9.964;2023-04-23T02:27:37;27.57;;;24.63;;
9964;SDS011;5023;53.554;9.964;2023-04-23T02:32:39;30.33;;;27.17;;
9964;SDS011;5023;53.554;9.964;2023-04-23T02:37:41;31.50;;;27.50;;
9964;SDS011;5023;53.554;9.964;2023-04-23T02:42:45;31.53;;;25.73;;
9964;SDS011;5023;53.554;9.964;2023-04-23T02:47:47;26.70;;;23.90;;
9964;SDS011;5023;53.554;9.964;2023-04-23T02:52:49;24.03;;;21.57;;
9964;SDS011;5023;53.554;9.964;2023-04-23T02:57:52;24.40;;;21.80;;
9964;SDS011;5023;53.554;9.964;2023-04-23T03:02:54;23.47;;;21.00;;
9964;SDS011;5023;53.554;9.964;2023-04-23T03:07:56;23.60;;;21.20;;
9964;SDS011;5023;53.554;9.964;2023-04-23T03:13:01;24.50;;;22.00;;
9964;SDS011;5023;53.554;9.964;2023-04-23T03:18:03;22.47;;;20.10;;
9964;SDS011;5023;53.554;9.964;2023-04-23T03:23:07;24.70;;;20.30;;
9964;SDS011;5023;53.554;9.964;2023-04-23T03:28:10;22.40;;;19.90;;
9964;SDS011;5023;53.554;9.964;2023-04-23T03:33:12;22.37;;;19.97;;
9964;SDS011;5023;53.554;9.964;2023-04-23T03:38:14;23.27;;;19.97;;
9964;SDS011;5023;53.554;9.964;2023-04-23T03:43:17;20.47;;;17.90;;
9964;SDS011;5023;53.554;9.964;2023-04-23T03:48:19;19.30;;;17.33;;
9964;SDS011;5023;53.554;9.964;2023-04-23T03:53:21;18.27;;;16.40;;
9964;SDS011;5023;53.554;9.964;2023-04-23T03:58:25;19.07;;;17.07;;
9964;SDS011;5023;53.554;9.964;2023-04-23T04:03:26;17.63;;;15.40;;
9964;SDS011;5023;53.554;9.964;2023-04-23T04:08:28;16.93;;;15.23;;
9964;SDS011;5023;53.554;9.964;2023-04-23T04:13:32;15.73;;;14.13;;
9964;SDS011;5023;53.554;9.964;2023-04-23T04:18:34;15.97;;;14.13;;
9964;SDS011;5023;53.554;9.964;2023-04-23T04:23:36;21.70;;;17.03;;
9964;SDS011;5023;53.554;9.964;2023-04-23T04:28:40;16.33;;;13.20;;
9964;SDS011;5023;53.554;9.964;2023-04-23T04:33:42;17.00;;;12.87;;
9964;SDS011;5023;53.554;9.964;2023-04-23T04:38:45;13.73;;;12.27;;
9964;SDS011;5023;53.554;9.964;2023-04-23T04:43:48;10.97;;;9.87;;
9964;SDS011;5023;53.554;9.964;2023-04-23T04:48:50;11.27;;;10.03;;
9964;SDS011;5023;53.554;9.964;2023-04-23T04:53:52;10.63;;;9.63;;
9964;SDS011;5023;53.554;9.964;2023-04-23T04:58:56;10.50;;;9.40;;
9964;SDS011;5023;53.554;9.964;2023-04-23T05:03:58;11.23;;;9.57;;
9964;SDS011;5023;53.554;9.964;2023-04-23T05:08:59;10.33;;;8.37;;
9964;SDS011;5023;53.554;9.964;2023-04-23T05:14:03;9.97;;;7.90;;
9964;SDS011;5023;53.554;9.964;2023-04-23T05:19:05;7.73;;;6.83;;
9964;SDS011;5023;53.554;9.964;2023-04-23T05:24:07;10.57;;;7.47;;
9964;SDS011;5023;53.554;9.964;2023-04-23T05:29:11;10.70;;;8.90;;
9964;SDS011;5023;53.554;9.964;2023-04-23T05:34:16;9.50;;;7.97;;
9964;SDS011;5023;53.554;9.964;2023-04-23T05:39:18;8.63;;;7.73;;
9964;SDS011;5023;53.554;9.964;2023-04-23T05:44:21;11.00;;;7.93;;
9964;SDS011;5023;53.554;9.964;2023-04-23T05:49:23;8.93;;;8.03;;
9964;SDS011;5023;53.554;9.964;2023-04-23T05:54:26;8.73;;;7.87;;
9964;SDS011;5023;53.554;9.964;2023-04-23T05:59:29;8.47;;;7.67;;
9964;SDS011;5023;53.554;9.964;2023-04-23T06:04:33;9.00;;;8.20;;
9964;SDS011;5023;53.554;9.964;2023-04-23T06:09:35;9.67;;;8.77;;
9964;SDS011;5023;53.554;9.964;2023-04-23T06:14:38;10.23;;;9.00;;
9964;SDS011;5023;53.554;9.964;2023-04-23T06:19:40;10.23;;;8.83;;
9964;SDS011;5023;53.554;9.964;2023-04-23T06:24:42;9.47;;;8.50;;
9964;SDS011;5023;53.554;9.964;2023-04-23T06:29:45;8.70;;;7.70;;
9964;SDS011;5023;53.554;9.964;2023-04-23T06:34:47;7.87;;;7.03;;
9964;SDS011;5023;53.554;9.964;2023-04-23T06:39:49;8.47;;;6.60;;
9964;SDS011;5023;53.554;9.964;2023-04-23T06:44:52;6.43;;;5.83;;
9964;SDS011;5023;53.554;9.964;2023-04-23T06:49:54;7.90;;;5.70;;
9964;SDS011;5023;53.554;9.964;2023-04-23T06:54:56;6.13;;;5.63;;
9964;SDS011;5023;53.554;9.964;2023-04-23T07:00:00;6.73;;;5.83;;
9964;SDS011;5023;53.554;9.964;2023-04-23T07:05:02;6.57;;;5.97;;
9964;SDS011;5023;53.554;9.964;2023-04-23T07:10:05;7.03;;;6.17;;
9964;SDS011;5023;53.554;9.964;2023-04-23T07:15:09;6.83;;;6.10;;
9964;SDS011;5023;53.554;9.964;2023-04-23T07:20:12;7.23;;;5.83;;
9964;SDS011;5023;53.554;9.964;2023-04-23T07:25:14;8.07;;;6.87;;
9964;SDS011;5023;53.554;9.964;2023-04-23T07:30:17;9.03;;;7.10;;
9964;SDS011;5023;53.554;9.964;2023-04-23T07:35:19;7.30;;;6.60;;
9964;SDS011;5023;53.554;9.964;2023-04-23T07:40:22;8.30;;;6.90;;
9964;SDS011;5023;53.554;9.964;2023-04-23T07:45:25;8.47;;;7.27;;
9964;SDS011;5023;53.554;9.964;2023-04-23T07:50:27;7.50;;;6.80;;
9964;SDS011;5023;53.554;9.964;2023-04-23T07:55:30;8.70;;;7.20;;
9964;SDS011;5023;53.554;9.964;2023-04-23T08:00:33;8.47;;;6.90;;
9964;SDS011;5023;53.554;9.964;2023-04-23T08:05:36;7.80;;;7.00;;
9964;SDS011;5023;53.554;9.964;2023-04-23T08:10:40;7.40;;;6.70;;
9964;SDS011;5023;53.554;9.964;2023-04-23T08:15:43;7.60;;;6.50;;
9964;SDS011;5023;53.554;9.964;2023-04-23T08:20:45;8.27;;;6.97;;
9964;SDS011;5023;53.554;9.964;2023-04-23T08:25:47;7.17;;;6.57;;
9964;SDS011;5023;53.554;9.964;2023-04-23T08:30:50;7.83;;;7.13;;
9964;SDS011;5023;53.554;9.964;2023-04-23T08:35:52;9.90;;;7.50;;
9964;SDS011;5023;53.554;9.964;2023-04-23T08:40:55;7.73;;;7.00;;
9964;SDS011;5023;53.554;9.964;2023-04-23T08:46:00;7.83;;;7.13;;
9964;SDS011;5023;53.554;9.964;2023-04-23T08:51:04;8.33;;;7.00;;
9964;SDS011;5023;53.554;9.964;2023-04-23T08:56:08;8.60;;;6.90;;
9964;SDS011;5023;53.554;9.964;2023-04-23T09:01:15;7.90;;;7.20;;
9964;SDS011;5023;53.554;9.964;2023-04-23T09:06:18;8.60;;;7.72;;
9964;SDS011;5023;53.554;9.964;2023-04-23T09:11:21;7.93;;;7.13;;
9964;SDS011;5023;53.554;9.964;2023-04-23T09:16:28;8.38;;;7.68;;
9964;SDS011;5023;53.554;9.964;2023-04-23T09:21:30;8.52;;;7.63;;
9964;SDS011;5023;53.554;9.964;2023-04-23T09:26:32;10.35;;;7.68;;
9964;SDS011;5023;53.554;9.964;2023-04-23T09:31:36;8.73;;;7.60;;
9964;SDS011;5023;53.554;9.964;2023-04-23T09:36:38;8.13;;;7.32;;
9964;SDS011;5023;53.554;9.964;2023-04-23T09:41:40;8.85;;;7.97;;
9964;SDS011;5023;53.554;9.964;2023-04-23T09:46:44;9.23;;;8.32;;
9964;SDS011;5023;53.554;9.964;2023-04-23T09:51:46;9.48;;;8.48;;
9964;SDS011;5023;53.554;9.964;2023-04-23T09:56:51;8.43;;;7.63;;
9964;SDS011;5023;53.554;9.964;2023-04-23T10:02:00;8.65;;;7.75;;
9964;SDS011;5023;53.554;9.964;2023-04-23T10:07:03;9.90;;;8.98;;
9964;SDS011;5023;53.554;9.964;2023-04-23T10:12:07;12.00;;;10.07;;
9964;SDS011;5023;53.554;9.964;2023-04-23T10:17:12;9.60;;;8.60;;
9964;SDS011;5023;53.554;9.964;2023-04-23T10:22:14;11.05;;;9.95;;
9964;SDS011;5023;53.554;9.964;2023-04-23T10:27:19;12.40;;;11.23;;
9964;SDS011;5023;53.554;9.964;2023-04-23T10:32:24;12.68;;;11.38;;
9964;SDS011;5023;53.554;9.964;2023-04-23T10:37:27;12.45;;;11.15;;
9964;SDS011;5023;53.554;9.964;2023-04-23T10:42:30;13.75;;;12.40;;
9964;SDS011;5023;53.554;9.964;2023-04-23T10:47:33;15.23;;;13.70;;
9964;SDS011;5023;53.554;9.964;2023-04-23T10:52:36;13.73;;;12.43;;
9964;SDS011;5023;53.554;9.964;2023-04-23T10:57:53;13.82;;;12.38;;
9964;SDS011;5023;53.554;9.964;2023-04-23T11:03:00;13.05;;;11.73;;
9964;SDS011;5023;53.554;9.964;2023-04-23T11:08:03;11.38;;;10.38;;
9964;SDS011;5023;53.554;9.964;2023-04-23T11:13:18;11.02;;;9.95;;
9964;SDS011;5023;53.554;9.964;2023-04-23T11:18:26;12.23;;;11.02;;
9964;SDS011;5023;53.554;9.964;2023-04-23T11:23:29;10.57;;;9.48;;
9964;SDS011;5023;53.554;9.964;2023-04-23T11:28:32;11.02;;;9.98;;
9964;SDS011;5023;53.554;9.964;2023-04-23T11:33:37;9.63;;;8.82;;
9964;SDS011;5023;53.554;9.964;2023-04-23T11:38:39;9.80;;;8.98;;
9964;SDS011;5023;53.554;9.964;2023-04-23T11:43:42;9.40;;;8.55;;
9964;SDS011;5023;53.554;9.964;2023-04-23T11:48:45;8.02;;;7.32;;
9964;SDS011;5023;53.554;9.964;2023-04-23T11:53:49;8.13;;;7.32;;
9964;SDS011;5023;53.554;9.964;2023-04-23T11:58:57;10.43;;;9.48;;
9964;SDS011;5023;53.554;9.964;2023-04-23T12:04:01;10.55;;;8.68;;
9964;SDS011;5023;53.554;9.964;2023-04-23T12:09:10;9.82;;;8.93;;
9964;SDS011;5023;53.554;9.964;2023-04-23T12:14:13;9.63;;;8.73;;
9964;SDS011;5023;53.554;9.964;2023-04-23T12:19:17;7.90;;;7.20;;
9964;SDS011;5023;53.554;9.964;2023-04-23T12:24:20;7.65;;;7.03;;
9964;SDS011;5023;53.554;9.964;2023-04-23T12:29:23;6.20;;;5.70;;
9964;SDS011;5023;53.554;9.964;2023-04-23T12:34:27;6.95;;;6.35;;
9964;SDS011;5023;53.554;9.964;2023-04-23T12:39:29;7.18;;;6.47;;
9964;SDS011;5023;53.554;9.964;2023-04-23T12:44:33;5.93;;;5.20;;
9964;SDS011;5023;53.554;9.964;2023-04-23T12:49:37;7.03;;;5.05;;
9964;SDS011;5023;53.554;9.964;2023-04-23T12:54:40;5.72;;;5.28;;
9964;SDS011;5023;53.554;9.964;2023-04-23T12:59:43;4.60;;;4.30;;
9964;SDS011;5023;53.554;9.964;2023-04-23T13:04:47;5.57;;;5.13;;
9964;SDS011;5023;53.554;9.964;2023-04-23T13:09:48;5.18;;;4.78;;
9964;SDS011;5023;53.554;9.964;2023-04-23T13:14:50;6.45;;;5.53;;
9964;SDS011;5023;53.554;9.964;2023-04-23T13:19:54;5.85;;;5.18;;
9964;SDS011;5023;53.554;9.964;2023-04-23T13:24:56;5.63;;;5.13;;
9964;SDS011;5023;53.554;9.964;2023-04-23T13:29:58;5.05;;;4.40;;
9964;SDS011;5023;53.554;9.964;2023-04-23T13:35:01;7.07;;;5.85;;
9964;SDS011;5023;53.554;9.964;2023-04-23T13:40:04;5.18;;;4.68;;
9964;SDS011;5023;53.554;9.964;2023-04-23T13:45:07;5.05;;;4.18;;
9964;SDS011;5023;53.554;9.964;2023-04-23T13:50:11;5.90;;;5.40;;
9964;SDS011;5023;53.554;9.964;2023-04-23T13:55:13;5.00;;;4.50;;
9964;SDS011;5023;53.554;9.964;2023-04-23T14:00:15;4.35;;;4.03;;
9964;SDS011;5023;53.554;9.964;2023-04-23T14:05:18;4.40;;;4.03;;
9964;SDS011;5023;53.554;9.964;2023-04-23T14:10:21;5.60;;;5.10;;
9964;SDS011;5023;53.554;9.964;2023-04-23T14:15:23;4.60;;;4.20;;
9964;SDS011;5023;53.554;9.964;2023-04-23T14:20:27;6.53;;;5.07;;
9964;SDS011;5023;53.554;9.964;2023-04-23T14:25:29;6.78;;;6.13;;
9964;SDS011;5023;53.554;9.964;2023-04-23T14:30:35;8.10;;;6.60;;
9964;SDS011;5023;53.554;9.964;2023-04-23T14:35:42;16.48;;;9.82;;
9964;SDS011;5023;53.554;9.964;2023-04-23T14:40:44;11.60;;;8.23;;
9964;SDS011;5023;53.554;9.964;2023-04-23T14:45:45;7.72;;;6.20;;
9964;SDS011;5023;53.554;9.964;2023-04-23T14:50:49;7.57;;;6.78;;
9964;SDS011;5023;53.554;9.964;2023-04-23T14:55:51;8.50;;;5.97;;
9964;SDS011;5023;53.554;9.964;2023-04-23T15:00:53;6.25;;;5.18;;
9964;SDS011;5023;53.554;9.964;2023-04-23T15:05:56;3.95;;;3.65;;
9964;SDS011;5023;53.554;9.964;2023-04-23T15:10:58;11.90;;;10.75;;
9964;SDS011;5023;53.554;9.964;2023-04-23T15:16:00;4.88;;;4.40;;
9964;SDS011;5023;53.554;9.964;2023-04-23T15:21:06;10.40;;;9.13;;
9964;SDS011;5023;53.554;9.964;2023-04-23T15:26:08;13.65;;;10.20;;
9964;SDS011;5023;53.554;9.964;2023-04-23T15:31:10;6.32;;;5.05;;
9964;SDS011;5023;53.554;9.964;2023-04-23T15:36:13;3.60;;;3.33;;
9964;SDS011;5023;53.554;9.964;2023-04-23T15:41:15;4.18;;;3.78;;
9964;SDS011;5023;53.554;9.964;2023-04-23T15:46:17;5.55;;;5.03;;
9964;SDS011;5023;53.554;9.964;2023-04-23T15:51:20;8.55;;;7.75;;
9964;SDS011;5023;53.554;9.964;2023-04-23T15:56:22;4.45;;;4.07;;
9964;SDS011;5023;53.554;9.964;2023-04-23T16:01:25;3.95;;;3.58;;
9964;SDS011;5023;53.554;9.964;2023-04-23T16:06:28;6.55;;;5.90;;
9964;SDS011;5023;53.554;9.964;2023-04-23T16:11:30;5.00;;;4.50;;
9964;SDS011;5023;53.554;9.964;2023-04-23T16:16:32;19.75;;;17.75;;
9964;SDS011;5023;53.554;9.964;2023-04-23T16:21:36;7.88;;;7.07;;
9964;SDS011;5023;53.554;9.964;2023-04-23T16:26:38;7.03;;;6.28;;
9964;SDS011;5023;53.554;9.964;2023-04-23T16:31:40;5.43;;;4.93;;
9964;SDS011;5023;53.554;9.964;2023-04-23T16:36:43;3.67;;;3.38;;
9964;SDS011;5023;53.554;9.964;2023-04-23T16:41:46;5.32;;;4.55;;
9964;SDS011;5023;53.554;9.964;2023-04-23T16:46:48;4.57;;;4.18;;
9964;SDS011;5023;53.554;9.964;2023-04-23T16:51:52;5.05;;;4.63;;
9964;SDS011;5023;53.554;9.964;2023-04-23T16:56:55;10.10;;;8.93;;
9964;SDS011;5023;53.554;9.964;2023-04-23T17:01:57;11.95;;;8.82;;
9964;SDS011;5023;53.554;9.964;2023-04-23T17:07:01;10.00;;;8.05;;
9964;SDS011;5023;53.554;9.964;2023-04-23T17:12:03;11.37;;;10.30;;
9964;SDS011;5023;53.554;9.964;2023-04-23T17:17:05;17.50;;;15.65;;
9964;SDS011;5023;53.554;9.964;2023-04-23T17:22:08;14.80;;;12.07;;
9964;SDS011;5023;53.554;9.964;2023-04-23T17:27:10;11.02;;;9.93;;
9964;SDS011;5023;53.554;9.964;2023-04-23T17:32:12;8.48;;;7.63;;
9964;SDS011;5023;53.554;9.964;2023-04-23T17:37:15;15.20;;;13.60;;
9964;SDS011;5023;53.554;9.964;2023-04-23T17:42:17;17.13;;;14.55;;
9964;SDS011;5023;53.554;9.964;2023-04-23T17:47:19;7.90;;;7.10;;
9964;SDS011;5023;53.554;9.964;2023-04-23T17:52:22;7.82;;;7.13;;
9964;SDS011;5023;53.554;9.964;2023-04-23T17:57:24;8.07;;;7.28;;
9964;SDS011;5023;53.554;9.964;2023-04-23T18:02:26;7.78;;;7.05;;
9964;SDS011;5023;53.554;9.964;2023-04-23T18:07:30;12.15;;;10.57;;
9964;SDS011;5023;53.554;9.964;2023-04-23T18:12:32;9.05;;;8.20;;
9964;SDS011;5023;53.554;9.964;2023-04-23T18:17:34;9.30;;;8.40;;
9964;SDS011;5023;53.554;9.964;2023-04-23T18:22:37;9.60;;;8.43;;
9964;SDS011;5023;53.554;9.964;2023-04-23T18:27:40;15.57;;;13.80;;
9964;SDS011;5023;53.554;9.964;2023-04-23T18:32:46;17.15;;;15.35;;
9964;SDS011;5023;53.554;9.964;2023-04-23T18:37:53;10.93;;;9.98;;
9964;SDS011;5023;53.554;9.964;2023-04-23T18:43:02;15.75;;;14.18;;
9964;SDS011;5023;53.554;9.964;2023-04-23T18:53:37;8.23;;;7.43;;
9964;SDS011;5023;53.554;9.964;2023-04-23T18:58:39;10.82;;;9.55;;
9964;SDS011;5023;53.554;9.964;2023-04-23T19:03:41;9.60;;;8.70;;
9964;SDS011;5023;53.554;9.964;2023-04-23T19:08:45;9.60;;;8.60;;
9964;SDS011;5023;53.554;9.964;2023-04-23T19:13:47;12.07;;;10.13;;
9964;SDS011;5023;53.554;9.964;2023-04-23T19:18:48;17.20;;;14.23;;
9964;SDS011;5023;53.554;9.964;2023-04-23T19:23:52;11.20;;;10.00;;
9964;SDS011;5023;53.554;9.964;2023-04-23T19:28:55;10.60;;;7.95;;
9964;SDS011;5023;53.554;9.964;2023-04-23T19:33:57;7.78;;;6.95;;
9964;SDS011;5023;53.554;9.964;2023-04-23T19:39:00;7.57;;;6.88;;
9964;SDS011;5023;53.554;9.964;2023-04-23T19:44:02;7.55;;;6.85;;
9964;SDS011;5023;53.554;9.964;2023-04-23T19:49:04;11.75;;;10.65;;
9964;SDS011;5023;53.554;9.964;2023-04-23T19:54:08;8.85;;;7.95;;
9964;SDS011;5023;53.554;9.964;2023-04-23T19:59:10;6.80;;;6.20;;
9964;SDS011;5023;53.554;9.964;2023-04-23T20:04:13;7.10;;;6.45;;
9964;SDS011;5023;53.554;9.964;2023-04-23T20:09:16;7.22;;;6.63;;
9964;SDS011;5023;53.554;9.964;2023-04-23T20:14:20;7.00;;;6.40;;
9964;SDS011;5023;53.554;9.964;2023-04-23T20:19:22;6.72;;;6.13;;
9964;SDS011;5023;53.554;9.964;2023-04-23T20:24:26;6.72;;;6.10;;
9964;SDS011;5023;53.554;9.964;2023-04-23T20:29:28;10.35;;;9.18;;
9964;SDS011;5023;53.554;9.964;2023-04-23T20:34:30;7.05;;;6.45;;
9964;SDS011;5023;53.554;9.964;2023-04-23T20:39:33;6.30;;;5.80;;
9964;SDS011;5023;53.554;9.964;2023-04-23T20:44:36;7.07;;;6.45;;
9964;SDS011;5023;53.554;9.964;2023-04-23T20:49:40;8.77;;;7.85;;
9964;SDS011;5023;53.554;9.964;2023-04-23T20:54:44;7.03;;;6.43;;
9964;SDS011;5023;53.554;9.964;2023-04-23T20:59:45;15.23;;;13.63;;
9964;SDS011;5023;53.554;9.964;2023-04-23T21:04:47;12.55;;;11.27;;
9964;SDS011;5023;53.554;9.964;2023-04-23T21:09:51;10.68;;;8.50;;
9964;SDS011;5023;53.554;9.964;2023-04-23T21:14:53;7.43;;;6.72;;
9964;SDS011;5023;53.554;9.964;2023-04-23T21:19:55;8.52;;;7.68;;
9964;SDS011;5023;53.554;9.964;2023-04-23T21:24:58;7.78;;;7.18;;
9964;SDS011;5023;53.554;9.964;2023-04-23T21:30:03;7.97;;;7.28;;
9964;SDS011;5023;53.554;9.964;2023-04-23T21:35:08;12.65;;;11.35;;
9964;SDS011;5023;53.554;9.964;2023-04-23T21:40:12;6.30;;;5.80;;
9964;SDS011;5023;53.554;9.964;2023-04-23T21:45:14;6.47;;;5.88;;
9964;SDS011;5023;53.554;9.964;2023-04-23T21:50:16;6.13;;;5.63;;
9964;SDS011;5023;53.554;9.964;2023-04-23T21:55:20;6.10;;;5.60;;
9964;SDS011;5023;53.554;9.964;2023-04-23T22:00:23;7.13;;;6.53;;
9964;SDS011;5023;53.554;9.964;2023-04-23T22:05:25;6.43;;;5.88;;
9964;SDS011;5023;53.554;9.964;2023-04-23T22:10:28;6.65;;;6.15;;
9964;SDS011;5023;53.554;9.964;2023-04-23T22:15:30;6.57;;;5.85;;
9964;SDS011;5023;53.554;9.964;2023-04-23T22:20:32;7.95;;;6.03;;
9964;SDS011;5023;53.554;9.964;2023-04-23T22:25:38;7.68;;;6.93;;
9964;SDS011;5023;53.554;9.964;2023-04-23T22:30:39;7.20;;;6.50;;
9964;SDS011;5023;53.554;9.964;2023-04-23T22:35:41;7.00;;;6.40;;
9964;SDS011;5023;53.554;9.964;2023-04-23T22:40:45;6.97;;;6.43;;
9964;SDS011;5023;53.554;9.964;2023-04-23T22:45:46;7.10;;;6.50;;
9964;SDS011;5023;53.554;9.964;2023-04-23T22:50:48;6.68;;;6.07;;
9964;SDS011;5023;53.554;9.964;2023-04-23T22:55:52;10.82;;;9.75;;
9964;SDS011;5023;53.554;9.964;2023-04-23T23:00:54;10.75;;;9.07;;
9964;SDS011;5023;53.554;9.964;2023-04-23T23:05:56;7.50;;;6.90;;
9964;SDS011;5023;53.554;9.964;2023-04-23T23:10:59;7.35;;;6.75;;
9964;SDS011;5023;53.554;9.964;2023-04-23T23:16:01;7.40;;;6.80;;
9964;SDS011;5023;53.554;9.964;2023-04-23T23:21:04;12.05;;;10.48;;
9964;SDS011;5023;53.554;9.964;2023-04-23T23:26:08;7.88;;;7.28;;
9964;SDS011;5023;53.554;9.964;2023-04-23T23:31:10;9.60;;;8.23;;
9964;SDS011;5023;53.554;9.964;2023-04-23T23:36:12;7.68;;;6.97;;
9964;SDS011;5023;53.554;9.964;2023-04-23T23:41:15;9.70;;;8.90;;
9964;SDS011;5023;53.554;9.964;2023-04-23T23:46:17;8.20;;;7.50;;
9964;SDS011;5023;53.554;9.964;2023-04-23T23:51:19;9.32;;;8.45;;
9964;SDS011;5023;53.554;9.964;2023-04-23T23:56:23;8.38;;;7.57;;
